Nearby METAR Reports

 

KMRB - Martinsburg, West Virginia, USA
Distance from station: NNW 9mi, 14km
Updated: 06/27/2022 6:53pm
Clear
Clear
 Wind from NNW
Wind: NNW 9 mph , 15 km/h
Temperature: 81°F , 27°C
Heat Index: 81°F , 27°C
Dew Point: 55°F , 13°C
Humidity: 42%
Barometer: 30.00 inHg , 1015.9 hPa
Clouds: Clear
Visibility: 10 miles , 16 km
2022/06/27 22:53 KMRB 272253Z 33008KT 10SM CLR 27/13 A3000 RMK AO2 SLP154 T02720128
KOKV - Winchester Rgnl, Virginia, USA
Distance from station: SW 17mi, 28km
Updated: 06/27/2022 7:15pm
Clear
Clear
 Wind from NW
Wind: NW 7 mph , 11 km/h
Temperature: 77°F , 25°C
Dew Point: 54°F , 12°C
Humidity: 44%
Barometer: 30.03 inHg , 1016.9 hPa
Clouds: Clear
Visibility: 10 miles , 16 km
2022/06/27 23:15 KOKV 272315Z AUTO 32006KT 10SM CLR 25/12 A3003 RMK AO2
 
KJYO - Leesburg/Godfrey, Virginia, USA
Distance from station: SE 23mi, 38km
Updated: 06/27/2022 7:35pm
Clear
Clear
 Wind from WSW
Wind: WSW 5 mph , 7 km/h
Temperature: 77°F , 25°C
Dew Point: 68°F , 20°C
Humidity: 74%
Barometer: 30.03 inHg , 1016.9 hPa
Clouds: Clear
Visibility: 10 miles , 16 km
2022/06/27 23:35 KJYO 272335Z AUTO 25004KT 10SM CLR 25/20 A3003 RMK AO2 PWINO
KFDK - Frederick, Maryland, USA
Distance from station: ENE 30mi, 48km
Updated: 06/27/2022 6:47pm
Clear
Clear
 Wind from NNW
Wind: NNW 9 mph , 15 km/h
Temperature: 82°F , 28°C
Dew Point: 52°F , 11°C
Humidity: 35%
Barometer: 29.99 inHg , 1015.6 hPa
Clouds: Clear
Visibility: 10 miles , 16 km
2022/06/27 22:47 KFDK 272247Z 34008KT 10SM CLR 28/11 A2999
 
KHGR - Hagerstown, Maryland, USA
Distance from station: NNE 30mi, 48km
Updated: 06/27/2022 6:53pm
Clear
Clear
 Wind from NW
Wind: NW 13 mph , 20 km/h
Temperature: 81°F , 27°C
Dew Point: 52°F , 11°C
Humidity: 37%
Barometer: 30.01 inHg , 1016.3 hPa
Clouds: Clear
Visibility: 10 miles , 16 km
2022/06/27 22:53 KHGR 272253Z 32011KT 10SM CLR 27/11 A3001 RMK AO2 SLP166 T02670111
KIAD - Wash Dc/Dulles, Virginia, USA
Distance from station: SE 34mi, 55km
Updated: 06/27/2022 6:52pm
Partly cloudy
Partly cloudy
 Wind from varies
Wind: varies 5 mph , 7 km/h
Temperature: 82°F , 28°C
Heat Index: 84°F , 29°C
Dew Point: 64°F , 18°C
Humidity: 55%
Barometer: 30.00 inHg , 1015.9 hPa
Clouds: Partly cloudy
Visibility: 10 miles , 16 km
Cloud details: Few Clouds 5000 ft
Partly cloudy 12000 ft
Partly cloudy 20000 ft
2022/06/27 22:52 KIAD 272252Z VRB04KT 10SM FEW050 SCT120 SCT200 28/18 A3000 RMK AO2 SLP155 T02780178
 
KRSP - Nsf Thurmont, Maryland, USA
Distance from station: NE 34mi, 55km
Updated: 06/27/2022 6:54pm
Clear
Clear
 Wind from varies
Wind: varies 7 mph , 11 km/h, Gust: 20 mph , 31 km/h
Temperature: 73°F , 23°C
Barometer: 30.05 inHg , 1017.6 hPa
Clouds: Clear
2022/06/27 22:54 KRSP 272254Z AUTO VRB06G17KT CLR 23/ A3005 RMK AO2 SLP170 T0228 $
KGAI - Gaithersburg, Maryland, USA
Distance from station: E 40mi, 64km
Updated: 06/27/2022 6:56pm
Clear
Clear
 Wind from calm
Wind: Calm
Temperature: 79°F , 26°C
Dew Point: 64°F , 18°C
Humidity: 61%
Barometer: 30.02 inHg , 1016.6 hPa
Clouds: Clear
Visibility: 10 miles , 16 km
2022/06/27 22:56 KGAI 272256Z AUTO 00000KT 10SM CLR 26/18 A3002 RMK AO2 SLP172 T02610183
 
KRYT - Fountain Dale, Pennsylvania, USA
Distance from station: NE 40mi, 64km
Updated: 11/13/2017 7:53am
NOT Current
Mist, Overcast
Mist, Overcast
 Wind from calm
Wind: Calm
Temperature: 37°F , 3°C
Dew Point: 34°F , 1°C
Humidity: 87%
Barometer: 30.31 inHg , 1026.4 hPa
Summary: Mist
Clouds: Overcast
Visibility: 5 miles , 8 km
Cloud details: Overcast 700 ft
2017/11/13 12:53 KRYT 131253Z AUTO 00000KT 5SM BR OVC007 03/01 A3031 RMK AO2 SLP275 T00280011 TSNO $
KHEF - Manassas Muni, Virginia, USA
Distance from station: SSE 44mi, 72km
Updated: 06/27/2022 6:56pm
Clear
Clear
 Wind from NNE
Wind: NNE 7 mph , 11 km/h
Temperature: 81°F , 27°C
Heat Index: 83°F , 28°C
Dew Point: 64°F , 18°C
Humidity: 58%
Barometer: 30.00 inHg , 1015.9 hPa
Clouds: Clear
Visibility: 10 miles , 16 km
2022/06/27 22:56 KHEF 272256Z 02006KT 10SM CLR 27/18 A3000 RMK AO2 SLP164 T02720178 PNO $
 
KHWY - Warrenton, Virginia, USA
Distance from station: SSE 50mi, 80km
Updated: 06/27/2022 7:15pm
Clear
Clear
 Wind from calm
Wind: Calm
Temperature: 82°F , 28°C
Heat Index: 83°F , 28°C
Dew Point: 63°F , 17°C
Humidity: 51%
Barometer: 30.02 inHg , 1016.6 hPa
Clouds: Clear
Visibility: 10 miles , 16 km
2022/06/27 23:15 KHWY 272315Z AUTO 00000KT 10SM CLR 28/17 A3002 RMK AO2 T02750166